createdAt,value
2018-05-08T00:00:01.371Z,6.60
2018-05-08T00:02:30.236Z,8.23
2018-05-08T00:04:58.135Z,7.37
2018-05-08T00:07:27.681Z,4.90
2018-05-08T00:09:55.156Z,6.23
2018-05-08T00:12:22.653Z,7.97
2018-05-08T00:14:50.293Z,6.13
2018-05-08T00:17:17.749Z,5.80
2018-05-08T00:19:45.330Z,4.80
2018-05-08T00:22:12.790Z,7.87
2018-05-08T00:24:40.550Z,9.33
2018-05-08T00:27:08.010Z,6.47
2018-05-08T00:29:36.473Z,6.07
2018-05-08T00:32:04.054Z,13.43
2018-05-08T00:34:31.531Z,10.13
2018-05-08T00:37:00.265Z,9.63
2018-05-08T00:39:27.731Z,12.00
2018-05-08T00:41:55.947Z,11.87
2018-05-08T00:44:24.202Z,7.83
2018-05-08T00:46:51.965Z,7.70
2018-05-08T00:51:54.873Z,5.97
2018-05-08T00:54:34.545Z,10.03
2018-05-08T00:57:02.018Z,5.93
2018-05-08T00:59:32.776Z,6.80
2018-05-08T01:02:00.270Z,13.97
2018-05-08T01:04:27.734Z,6.47
2018-05-08T01:06:56.807Z,6.10
2018-05-08T01:09:24.436Z,7.80
2018-05-08T01:11:51.948Z,4.17
2018-05-08T01:14:19.406Z,8.07
2018-05-08T01:16:47.266Z,9.27
2018-05-08T01:19:14.775Z,7.30
2018-05-08T01:21:42.251Z,7.83
2018-05-08T01:24:09.918Z,8.83
2018-05-08T01:26:37.715Z,4.90
2018-05-08T01:29:05.452Z,6.33
2018-05-08T01:31:33.010Z,5.67
2018-05-08T01:34:01.758Z,8.37
2018-05-08T01:36:30.550Z,8.03
2018-05-08T01:38:58.038Z,3.83
2018-05-08T01:41:25.802Z,9.07
2018-05-08T01:43:53.444Z,4.60
2018-05-08T01:46:20.926Z,6.33
2018-05-08T01:48:48.478Z,4.90
2018-05-08T01:51:16.241Z,9.90
2018-05-08T01:53:44.950Z,5.90
2018-05-08T01:56:12.597Z,9.77
2018-05-08T01:58:40.066Z,5.27
2018-05-08T02:01:07.522Z,5.77
2018-05-08T02:03:36.088Z,4.90
2018-05-08T02:06:03.583Z,11.70
2018-05-08T02:08:31.777Z,6.90
2018-05-08T02:11:00.333Z,6.77
2018-05-08T02:13:29.186Z,9.33
2018-05-08T02:15:56.653Z,5.53
2018-05-08T02:18:24.113Z,7.57
2018-05-08T02:20:51.871Z,9.47
2018-05-08T02:23:19.333Z,5.80
2018-05-08T02:25:49.531Z,10.40
2018-05-08T02:28:17.002Z,5.97
2018-05-08T02:30:44.469Z,6.77
2018-05-08T02:33:11.926Z,7.43
2018-05-08T02:35:39.678Z,8.37
2018-05-08T02:38:07.139Z,4.83
2018-05-08T02:40:35.747Z,5.13
2018-05-08T02:43:03.221Z,8.80
2018-05-08T02:45:30.689Z,9.87
2018-05-08T02:47:58.214Z,7.50
2018-05-08T02:50:25.675Z,7.23
2018-05-08T02:52:54.185Z,7.63
2018-05-08T02:55:21.706Z,6.77
2018-05-08T02:57:49.175Z,7.70
2018-05-08T03:00:16.717Z,10.97
2018-05-08T03:02:44.343Z,5.30
2018-05-08T03:05:13.346Z,6.83
2018-05-08T03:07:40.814Z,11.00
2018-05-08T03:10:08.308Z,10.17
2018-05-08T03:12:35.830Z,7.87
2018-05-08T03:15:04.502Z,10.87
2018-05-08T03:17:31.975Z,10.57
2018-05-08T03:19:59.641Z,10.17
2018-05-08T03:22:27.221Z,5.97
2018-05-08T03:24:54.662Z,9.40
2018-05-08T03:27:23.006Z,8.37
2018-05-08T03:29:50.655Z,8.53
2018-05-08T03:32:18.161Z,8.53
2018-05-08T03:34:45.622Z,4.17
2018-05-08T03:37:13.554Z,4.77
2018-05-08T03:39:41.142Z,3.83
2018-05-08T03:42:08.702Z,5.20
2018-05-08T03:44:36.362Z,6.47
2018-05-08T03:47:03.837Z,7.53
2018-05-08T03:49:31.568Z,6.63
2018-05-08T03:51:59.848Z,6.57
2018-05-08T03:54:27.679Z,10.03
2018-05-08T03:56:56.288Z,13.27
2018-05-08T03:59:23.834Z,7.97
2018-05-08T04:02:03.814Z,7.07
2018-05-08T04:04:43.145Z,7.00
2018-05-08T04:07:22.585Z,12.97
2018-05-08T04:09:50.042Z,9.23
2018-05-08T04:12:19.193Z,9.43
2018-05-08T04:14:46.694Z,7.20
2018-05-08T04:17:14.166Z,9.10
2018-05-08T04:19:41.637Z,12.60
2018-05-08T04:22:09.110Z,10.57
2018-05-08T04:24:37.844Z,7.57
2018-05-08T04:27:05.293Z,8.80
2018-05-08T04:29:32.774Z,11.20
2018-05-08T04:32:01.240Z,10.60
2018-05-08T04:34:28.854Z,13.33
2018-05-08T04:36:59.194Z,9.53
2018-05-08T04:39:26.834Z,15.90
2018-05-08T04:41:55.670Z,15.57
2018-05-08T04:44:23.341Z,9.23
2018-05-08T04:46:52.520Z,10.27
2018-05-08T04:49:20.090Z,12.20
2018-05-08T04:51:47.933Z,11.13
2018-05-08T04:54:17.224Z,15.27
2018-05-08T04:56:44.794Z,15.53
2018-05-08T04:59:12.383Z,17.73
2018-05-08T05:01:41.124Z,19.97
2018-05-08T05:04:08.986Z,15.53
2018-05-08T05:06:36.519Z,13.03
2018-05-08T05:09:03.995Z,15.10
2018-05-08T05:11:32.026Z,26.97
2018-05-08T05:13:59.910Z,16.13
2018-05-08T05:16:27.492Z,27.13
2018-05-08T05:18:55.121Z,40.57
2018-05-08T05:21:22.594Z,21.83
2018-05-08T05:23:51.123Z,24.50
2018-05-08T05:26:18.719Z,18.93
2018-05-08T05:28:46.761Z,25.57
2018-05-08T05:31:14.230Z,17.13
2018-05-08T05:33:41.694Z,37.60
2018-05-08T05:36:09.454Z,33.80
2018-05-08T05:38:36.915Z,20.73
2018-05-08T05:41:05.330Z,26.97
2018-05-08T05:43:33.639Z,17.87
2018-05-08T05:46:04.126Z,21.93
2018-05-08T05:48:31.608Z,34.40
2018-05-08T05:50:59.079Z,18.17
2018-05-08T05:53:26.651Z,18.93
2018-05-08T05:55:54.202Z,34.63
2018-05-08T05:58:21.675Z,32.20
2018-05-08T06:00:49.137Z,21.53
2018-05-08T06:03:17.559Z,23.83
2018-05-08T06:05:45.766Z,24.30
2018-05-08T06:08:14.170Z,24.03
2018-05-08T06:10:41.831Z,28.23
2018-05-08T06:13:09.478Z,17.77
2018-05-08T06:15:38.174Z,19.47
2018-05-08T06:18:07.189Z,17.17
2018-05-08T06:20:34.736Z,19.47
2018-05-08T06:23:03.146Z,19.57
2018-05-08T06:25:31.642Z,13.30
2018-05-08T06:27:59.226Z,7.73
2018-05-08T06:30:26.695Z,8.97
2018-05-08T06:32:55.166Z,17.60
2018-05-08T06:35:22.630Z,17.93
2018-05-08T06:37:50.209Z,11.70
2018-05-08T06:40:17.675Z,12.50
2018-05-08T06:42:45.667Z,17.77
2018-05-08T06:45:14.369Z,13.13
2018-05-08T06:47:42.099Z,21.67
2018-05-08T06:50:10.938Z,15.80
2018-05-08T06:52:38.806Z,10.80
2018-05-08T06:55:06.422Z,8.40
2018-05-08T06:57:33.883Z,8.27
2018-05-08T07:00:01.358Z,6.67
2018-05-08T07:02:28.865Z,9.83
2018-05-08T07:04:56.341Z,8.83
2018-05-08T07:07:24.624Z,4.63
2018-05-08T07:09:54.058Z,9.87
2018-05-08T07:12:21.517Z,29.63
2018-05-08T07:14:49.957Z,3.83
2018-05-08T07:17:18.372Z,5.77
2018-05-08T07:19:46.778Z,6.83
2018-05-08T07:22:15.856Z,4.83
2018-05-08T07:24:44.881Z,5.77
2018-05-08T07:27:12.530Z,4.97
2018-05-08T07:29:41.194Z,9.33
2018-05-08T07:32:11.635Z,9.10
2018-05-08T07:34:39.328Z,13.27
2018-05-08T07:37:06.786Z,14.23
2018-05-08T07:39:37.189Z,8.53
2018-05-08T07:42:07.573Z,17.00
2018-05-08T07:44:36.233Z,5.47
2018-05-08T07:47:05.142Z,14.20
2018-05-08T07:49:32.594Z,10.17
2018-05-08T07:52:00.074Z,9.70
2018-05-08T07:54:27.815Z,8.20
2018-05-08T07:56:57.131Z,7.73
2018-05-08T07:59:24.595Z,8.77
2018-05-08T08:01:52.057Z,6.73
2018-05-08T08:04:19.518Z,10.33
2018-05-08T08:06:46.990Z,8.93
2018-05-08T08:09:14.475Z,5.17
2018-05-08T08:11:42.232Z,3.77
2018-05-08T08:14:09.688Z,5.87
2018-05-08T08:16:39.523Z,6.47
2018-05-08T08:19:06.978Z,8.40
2018-05-08T08:21:34.457Z,8.70
2018-05-08T08:24:01.924Z,10.30
2018-05-08T08:26:29.431Z,20.40
2018-05-08T08:28:57.043Z,6.77
2018-05-08T08:31:25.604Z,5.33
2018-05-08T08:33:53.194Z,5.30
2018-05-08T08:36:21.682Z,5.63
2018-05-08T08:38:49.270Z,5.37
2018-05-08T08:41:16.736Z,7.80
2018-05-08T08:43:44.274Z,5.10
2018-05-08T08:46:12.290Z,4.43
2018-05-08T08:48:39.758Z,6.33
2018-05-08T08:51:07.277Z,6.77
2018-05-08T08:53:34.751Z,4.03
2018-05-08T08:56:02.214Z,9.63
2018-05-08T08:58:29.752Z,8.93
2018-05-08T09:00:57.678Z,5.63
2018-05-08T09:03:25.892Z,5.97
2018-05-08T09:05:53.525Z,4.30
2018-05-08T09:08:21.775Z,6.80
2018-05-08T09:10:49.413Z,5.20
2018-05-08T09:13:16.898Z,10.50
2018-05-08T09:15:45.580Z,3.93
2018-05-08T09:18:14.038Z,4.93
2018-05-08T09:20:41.770Z,10.80
2018-05-08T09:23:09.250Z,6.13
2018-05-08T09:25:37.863Z,6.10
2018-05-08T09:28:05.678Z,4.87
2018-05-08T09:30:33.906Z,9.00
2018-05-08T09:33:02.432Z,9.83
2018-05-08T09:35:30.198Z,8.20
2018-05-08T09:37:58.488Z,9.13
2018-05-08T09:40:30.809Z,3.73
2018-05-08T09:43:00.068Z,11.73
2018-05-08T09:45:28.287Z,3.60
2018-05-08T09:47:55.755Z,5.23
2018-05-08T09:50:23.494Z,5.00
2018-05-08T09:52:50.952Z,4.37
2018-05-08T09:55:18.423Z,7.20
2018-05-08T09:57:45.882Z,4.77
2018-05-08T10:00:13.685Z,6.97
2018-05-08T10:02:41.925Z,6.90
2018-05-08T10:05:09.398Z,6.27
2018-05-08T10:07:36.862Z,4.37
2018-05-08T10:10:04.325Z,5.23
2018-05-08T10:12:31.879Z,6.63
2018-05-08T10:14:59.370Z,5.37
2018-05-08T10:17:26.831Z,4.30
2018-05-08T10:19:54.445Z,5.57
2018-05-08T10:22:22.027Z,15.23
2018-05-08T10:24:50.946Z,4.70
2018-05-08T10:27:18.418Z,7.00
2018-05-08T10:29:46.263Z,5.17
2018-05-08T10:32:13.732Z,3.53
2018-05-08T10:34:42.096Z,10.13
2018-05-08T10:37:10.385Z,5.67
2018-05-08T10:39:37.850Z,3.63
2018-05-08T10:42:05.321Z,3.93
2018-05-08T10:44:32.779Z,5.90
2018-05-08T10:47:00.254Z,4.47
2018-05-08T10:49:29.227Z,5.17
2018-05-08T10:51:56.707Z,5.77
2018-05-08T10:54:24.487Z,5.87
2018-05-08T10:56:53.473Z,9.77
2018-05-08T10:59:23.472Z,3.83
2018-05-08T11:01:51.944Z,7.27
2018-05-08T11:04:19.411Z,10.50
2018-05-08T11:06:46.985Z,8.90
2018-05-08T11:09:14.442Z,13.03
2018-05-08T11:11:43.730Z,6.70
2018-05-08T11:14:11.512Z,7.90
2018-05-08T11:16:40.500Z,6.03
2018-05-08T11:19:07.962Z,6.17
2018-05-08T11:21:36.963Z,3.93
2018-05-08T11:24:05.206Z,5.60
2018-05-08T11:26:33.587Z,9.03
2018-05-08T11:29:00.969Z,7.67
2018-05-08T11:31:28.572Z,5.70
2018-05-08T11:33:56.231Z,4.53
2018-05-08T11:36:23.687Z,5.40
2018-05-08T11:38:54.014Z,3.50
2018-05-08T11:41:21.480Z,5.13
2018-05-08T11:43:48.949Z,5.70
2018-05-08T11:46:17.872Z,4.77
2018-05-08T11:48:46.228Z,5.07
2018-05-08T11:51:13.695Z,4.47
2018-05-08T11:53:41.164Z,8.70
2018-05-08T11:56:09.920Z,8.10
2018-05-08T11:58:37.541Z,6.73
2018-05-08T12:01:05.766Z,8.20
2018-05-08T12:03:34.779Z,7.00
2018-05-08T12:06:03.998Z,18.30
2018-05-08T12:08:32.684Z,8.63
2018-05-08T12:11:00.145Z,7.47
2018-05-08T12:13:27.618Z,5.33
2018-05-08T12:15:55.076Z,8.53
2018-05-08T12:18:22.584Z,12.23
2018-05-08T12:20:52.074Z,5.23
2018-05-08T12:23:19.648Z,4.30
2018-05-08T12:25:48.877Z,6.43
2018-05-08T12:28:16.406Z,5.80
2018-05-08T12:30:45.505Z,5.47
2018-05-08T12:33:14.056Z,23.50
2018-05-08T12:35:41.542Z,7.10
2018-05-08T12:38:10.790Z,8.23
2018-05-08T12:40:38.815Z,7.97
2018-05-08T12:43:06.368Z,5.00
2018-05-08T12:45:36.297Z,10.00
2018-05-08T12:48:05.202Z,8.73
2018-05-08T12:50:32.767Z,5.50
2018-05-08T12:53:01.114Z,13.03
2018-05-08T12:55:29.422Z,6.13
2018-05-08T12:57:59.375Z,4.80
2018-05-08T13:00:26.834Z,5.17
2018-05-08T13:02:54.310Z,6.87
2018-05-08T13:05:23.582Z,10.30
2018-05-08T13:07:51.070Z,7.67
2018-05-08T13:10:18.988Z,5.00
2018-05-08T13:12:46.470Z,5.43
2018-05-08T13:15:13.966Z,6.33
2018-05-08T13:17:42.588Z,5.00
2018-05-08T13:20:10.194Z,6.47
2018-05-08T13:22:39.190Z,7.17
2018-05-08T13:25:07.442Z,5.67
2018-05-08T13:27:35.914Z,4.37
2018-05-08T13:30:03.421Z,5.40
2018-05-08T13:32:31.982Z,6.03
2018-05-08T13:34:59.462Z,6.70
2018-05-08T13:37:26.934Z,5.23
2018-05-08T13:39:54.457Z,6.03
2018-05-08T13:42:24.198Z,6.13
2018-05-08T13:44:52.995Z,6.97
2018-05-08T13:47:20.514Z,5.97
2018-05-08T13:49:48.293Z,18.57
2018-05-08T13:52:16.738Z,7.13
2018-05-08T13:54:44.200Z,4.43
2018-05-08T13:57:12.626Z,8.70
2018-05-08T13:59:45.083Z,10.93
2018-05-08T14:02:14.783Z,6.30
2018-05-08T14:04:42.366Z,4.53
2018-05-08T14:07:10.611Z,12.90
2018-05-08T14:09:38.077Z,5.03
2018-05-08T14:12:06.626Z,4.13
2018-05-08T14:14:37.970Z,10.63
2018-05-08T14:17:05.441Z,10.90
2018-05-08T14:19:34.511Z,4.30
2018-05-08T14:22:02.014Z,6.33
2018-05-08T14:24:29.561Z,5.97
2018-05-08T14:26:57.026Z,8.93
2018-05-08T14:29:26.124Z,7.23
2018-05-08T14:31:53.692Z,8.47
2018-05-08T14:34:22.715Z,6.13
2018-05-08T14:36:50.846Z,8.70
2018-05-08T14:39:19.210Z,9.47
2018-05-08T14:41:47.689Z,5.00
2018-05-08T14:44:15.371Z,7.03
2018-05-08T14:46:43.015Z,3.73
2018-05-08T14:49:10.660Z,10.63
2018-05-08T14:51:38.241Z,5.87
2018-05-08T14:54:06.567Z,5.77
2018-05-08T14:56:34.067Z,9.63
2018-05-08T14:59:01.644Z,10.40
2018-05-08T15:01:30.198Z,5.47
2018-05-08T15:03:57.795Z,6.40
2018-05-08T15:06:26.216Z,4.43
2018-05-08T15:08:55.155Z,5.47
2018-05-08T15:11:23.538Z,7.47
2018-05-08T15:13:51.205Z,5.87
2018-05-08T15:16:18.771Z,7.30
2018-05-08T15:18:46.527Z,8.63
2018-05-08T15:21:15.067Z,5.33
2018-05-08T15:23:43.708Z,10.77
2018-05-08T15:26:11.953Z,7.77
2018-05-08T15:28:39.433Z,8.33
2018-05-08T15:31:07.204Z,9.60
2018-05-08T15:33:34.958Z,11.23
2018-05-08T15:36:03.803Z,4.50
2018-05-08T15:38:31.294Z,7.33
2018-05-08T15:40:58.803Z,4.40
2018-05-08T15:43:26.316Z,5.33
2018-05-08T15:45:55.557Z,5.20
2018-05-08T15:48:23.040Z,8.37
2018-05-08T15:50:50.539Z,6.50
2018-05-08T15:53:18.010Z,4.53
2018-05-08T15:55:45.502Z,8.87
2018-05-08T15:58:13.126Z,5.20
2018-05-08T16:00:40.590Z,8.03
2018-05-08T16:03:08.075Z,4.67
2018-05-08T16:05:35.543Z,8.13
2018-05-08T16:08:04.402Z,9.53
2018-05-08T16:10:32.285Z,7.73
2018-05-08T16:13:00.602Z,6.00
2018-05-08T16:15:28.079Z,7.10
2018-05-08T16:17:55.626Z,7.23
2018-05-08T16:20:28.329Z,7.60
2018-05-08T16:22:57.104Z,8.33
2018-05-08T16:25:25.940Z,5.47
2018-05-08T16:27:53.406Z,6.07
2018-05-08T16:30:24.591Z,6.93
2018-05-08T16:32:52.041Z,6.30
2018-05-08T16:35:21.135Z,4.43
2018-05-08T16:37:51.723Z,4.70
2018-05-08T16:40:19.183Z,14.27
2018-05-08T16:42:46.673Z,4.77
2018-05-08T16:45:14.823Z,5.27
2018-05-08T16:47:42.325Z,4.60
2018-05-08T16:50:09.837Z,7.83
2018-05-08T16:52:38.289Z,10.80
2018-05-08T16:55:05.814Z,10.00
2018-05-08T16:57:33.998Z,8.83
2018-05-08T17:00:03.100Z,10.57
2018-05-08T17:02:32.190Z,4.20
2018-05-08T17:04:59.694Z,10.70
2018-05-08T17:07:27.854Z,6.67
2018-05-08T17:09:55.488Z,17.83
2018-05-08T17:12:22.960Z,5.60
2018-05-08T17:14:53.433Z,4.90
2018-05-08T17:17:20.922Z,8.23
2018-05-08T17:19:48.779Z,6.70
2018-05-08T17:22:18.282Z,7.73
2018-05-08T17:24:46.699Z,9.57
2018-05-08T17:27:14.165Z,6.80
2018-05-08T17:29:42.593Z,8.73
2018-05-08T17:32:10.675Z,6.07
2018-05-08T17:34:38.154Z,5.90
2018-05-08T17:37:05.636Z,5.67
2018-05-08T17:39:33.106Z,7.27
2018-05-08T17:42:01.410Z,7.57
2018-05-08T17:44:28.886Z,7.03
2018-05-08T17:46:56.934Z,7.43
2018-05-08T17:49:24.410Z,10.87
2018-05-08T17:51:52.737Z,5.73
2018-05-08T17:54:20.219Z,4.53
2018-05-08T17:56:48.693Z,10.53
2018-05-08T17:59:16.167Z,9.37
2018-05-08T18:01:43.643Z,9.40
2018-05-08T18:04:11.526Z,6.77
2018-05-08T18:06:40.166Z,8.30
2018-05-08T18:09:08.412Z,6.37
2018-05-08T18:11:35.890Z,4.83
2018-05-08T18:14:03.935Z,4.07
2018-05-08T18:16:31.657Z,6.37
2018-05-08T18:18:59.124Z,7.50
2018-05-08T18:21:26.599Z,7.30
2018-05-08T18:23:54.061Z,15.00
2018-05-08T18:26:21.534Z,5.83
2018-05-08T18:28:49.656Z,6.90
2018-05-08T18:31:17.130Z,11.97
2018-05-08T18:33:45.350Z,8.37
2018-05-08T18:36:13.614Z,11.20
2018-05-08T18:38:41.112Z,11.30
2018-05-08T18:41:09.584Z,14.37
2018-05-08T18:43:37.952Z,8.50
2018-05-08T18:46:06.083Z,6.03
2018-05-08T18:48:33.558Z,11.93
2018-05-08T18:51:01.014Z,8.07
2018-05-08T18:53:29.316Z,7.60
2018-05-08T18:55:57.366Z,7.17
2018-05-08T18:58:24.854Z,6.00
2018-05-08T19:00:55.255Z,5.43
2018-05-08T19:03:23.440Z,8.30
2018-05-08T19:05:50.886Z,9.33
2018-05-08T19:08:18.358Z,8.40
2018-05-08T19:10:45.837Z,13.40
2018-05-08T19:13:14.774Z,8.90
2018-05-08T19:15:47.935Z,11.17
2018-05-08T19:18:16.723Z,10.37
2018-05-08T19:20:44.242Z,13.03
2018-05-08T19:23:12.511Z,8.40
2018-05-08T19:25:39.966Z,6.93
2018-05-08T19:28:13.150Z,8.90
2018-05-08T19:30:40.608Z,8.77
2018-05-08T19:33:08.097Z,12.40
2018-05-08T19:35:41.226Z,5.93
2018-05-08T19:38:14.405Z,9.17
2018-05-08T19:40:43.463Z,9.63
2018-05-08T19:43:10.966Z,11.53
2018-05-08T19:45:38.429Z,7.20
2018-05-08T19:48:06.317Z,13.33
2018-05-08T19:50:34.049Z,7.10
2018-05-08T19:53:01.951Z,13.70
2018-05-08T19:55:29.431Z,12.23
2018-05-08T19:57:56.942Z,11.83
2018-05-08T20:00:24.394Z,10.53
2018-05-08T20:02:51.854Z,12.80
2018-05-08T20:05:19.334Z,13.07
2018-05-08T20:07:46.810Z,10.30
2018-05-08T20:10:16.270Z,9.10
2018-05-08T20:12:45.525Z,7.63
2018-05-08T20:15:13.004Z,11.23
2018-05-08T20:17:40.464Z,8.67
2018-05-08T20:20:08.118Z,5.80
2018-05-08T20:22:36.982Z,10.53
2018-05-08T20:25:04.571Z,8.13
2018-05-08T20:27:32.930Z,8.60
2018-05-08T20:30:00.450Z,13.13
2018-05-08T20:32:28.815Z,13.03
2018-05-08T20:34:57.116Z,10.80
2018-05-08T20:37:24.595Z,13.10
2018-05-08T20:39:52.471Z,12.00
2018-05-08T20:42:19.957Z,10.87
2018-05-08T20:44:49.415Z,8.57
2018-05-08T20:47:18.057Z,7.77
2018-05-08T20:49:45.613Z,12.17
2018-05-08T20:52:14.079Z,10.87
2018-05-08T20:54:41.552Z,10.37
2018-05-08T20:57:09.875Z,14.60
2018-05-08T20:59:37.371Z,11.10
2018-05-08T21:02:05.367Z,10.27
2018-05-08T21:04:33.561Z,10.97
2018-05-08T21:07:01.043Z,13.50
2018-05-08T21:09:28.568Z,10.83
2018-05-08T21:11:56.047Z,8.40
2018-05-08T21:14:24.508Z,9.70
2018-05-08T21:16:52.014Z,10.47
2018-05-08T21:19:19.515Z,9.33
2018-05-08T21:21:47.541Z,7.13
2018-05-08T21:24:16.131Z,6.03
2018-05-08T21:26:45.021Z,8.73
2018-05-08T21:29:18.195Z,11.03
2018-05-08T21:31:46.888Z,10.00
2018-05-08T21:34:14.407Z,13.33
2018-05-08T21:36:41.923Z,12.53
2018-05-08T21:39:09.383Z,8.40
2018-05-08T21:41:36.871Z,9.83
2018-05-08T21:44:04.347Z,8.47
2018-05-08T21:46:31.821Z,6.93
2018-05-08T21:49:01.727Z,6.43
2018-05-08T21:51:29.191Z,10.17
2018-05-08T21:53:56.913Z,11.33
2018-05-08T21:56:24.385Z,7.77
2018-05-08T21:58:51.855Z,8.77
2018-05-08T22:01:19.330Z,14.63
2018-05-08T22:03:46.800Z,9.93
2018-05-08T22:06:14.652Z,8.53
2018-05-08T22:08:42.666Z,5.63
2018-05-08T22:11:10.535Z,10.67
2018-05-08T22:13:38.767Z,5.47
2018-05-08T22:16:07.231Z,9.97
2018-05-08T22:18:34.697Z,8.67
2018-05-08T22:21:02.163Z,5.70
2018-05-08T22:23:29.629Z,8.87
2018-05-08T22:25:57.098Z,6.40
2018-05-08T22:28:25.915Z,7.63
2018-05-08T22:30:54.132Z,6.87
2018-05-08T22:33:21.587Z,6.27
2018-05-08T22:35:49.857Z,7.70
2018-05-08T22:38:17.937Z,16.07
2018-05-08T22:40:45.433Z,6.87
2018-05-08T22:43:13.646Z,8.07
2018-05-08T22:45:41.114Z,9.70
2018-05-08T22:48:09.404Z,12.77
2018-05-08T22:50:36.875Z,11.83
2018-05-08T22:53:04.330Z,8.00
2018-05-08T22:55:32.674Z,8.40
2018-05-08T22:58:00.146Z,7.47
2018-05-08T23:00:28.188Z,9.67
2018-05-08T23:02:55.651Z,8.03
2018-05-08T23:05:23.124Z,13.87
2018-05-08T23:07:50.582Z,13.40
2018-05-08T23:10:19.313Z,9.53
2018-05-08T23:12:47.555Z,9.17
2018-05-08T23:15:15.236Z,6.67
2018-05-08T23:17:42.694Z,7.83
2018-05-08T23:20:11.390Z,8.63
2018-05-08T23:22:38.849Z,8.73
2018-05-08T23:25:06.312Z,11.53
2018-05-08T23:27:34.546Z,10.03
2018-05-08T23:30:02.689Z,11.23
2018-05-08T23:32:30.159Z,7.40
2018-05-08T23:34:57.631Z,14.27
2018-05-08T23:37:25.697Z,9.23
2018-05-08T23:39:53.166Z,7.23
2018-05-08T23:42:20.635Z,12.13
2018-05-08T23:44:48.095Z,8.73
2018-05-08T23:47:15.561Z,9.27
2018-05-08T23:49:43.425Z,9.80
2018-05-08T23:52:11.481Z,9.13
2018-05-08T23:54:38.954Z,12.17
2018-05-08T23:57:06.416Z,9.07
2018-05-08T23:59:33.869Z,14.93
